createdAt,value
2023-05-04T00:00:14.060Z,15.00
2023-05-04T00:02:41.246Z,13.45
2023-05-04T00:05:08.661Z,13.27
2023-05-04T00:07:35.861Z,14.63
2023-05-04T00:10:03.321Z,15.98
2023-05-04T00:12:30.956Z,12.93
2023-05-04T00:14:58.101Z,12.35
2023-05-04T00:17:25.216Z,13.63
2023-05-04T00:19:52.418Z,12.63
2023-05-04T00:22:19.517Z,15.40
2023-05-04T00:24:46.674Z,14.23
2023-05-04T00:27:13.891Z,14.25
2023-05-04T00:29:41.000Z,14.02
2023-05-04T00:32:08.097Z,14.57
2023-05-04T00:34:35.300Z,12.27
2023-05-04T00:37:02.640Z,13.32
2023-05-04T00:39:29.856Z,12.45
2023-05-04T00:41:57.024Z,13.25
2023-05-04T00:44:24.316Z,13.80
2023-05-04T00:46:56.017Z,13.00
2023-05-04T00:49:23.317Z,12.13
2023-05-04T00:51:51.691Z,13.57
2023-05-04T00:54:19.775Z,15.07
2023-05-04T00:56:47.539Z,12.07
2023-05-04T00:59:14.736Z,12.43
2023-05-04T01:01:42.565Z,14.10
2023-05-04T01:04:10.186Z,11.40
2023-05-04T01:06:56.193Z,12.82
2023-05-04T01:09:39.433Z,12.35
2023-05-04T01:12:17.541Z,13.63
2023-05-04T01:14:46.049Z,10.82
2023-05-04T01:17:13.810Z,10.70
2023-05-04T01:19:41.054Z,13.43
2023-05-04T01:22:08.166Z,10.23
2023-05-04T01:24:35.563Z,11.23
2023-05-04T01:27:17.262Z,10.93
2023-05-04T01:30:17.253Z,12.73
2023-05-04T01:32:45.607Z,12.27
2023-05-04T01:35:13.694Z,12.55
2023-05-04T01:37:41.254Z,12.85
2023-05-04T01:40:09.289Z,10.95
2023-05-04T01:42:36.469Z,10.25
2023-05-04T01:45:04.611Z,11.65
2023-05-04T01:47:31.936Z,14.10
2023-05-04T01:49:59.037Z,12.27
2023-05-04T01:52:26.345Z,11.60
2023-05-04T01:54:53.496Z,11.95
2023-05-04T01:57:20.577Z,11.65
2023-05-04T01:59:47.763Z,13.40
2023-05-04T02:02:14.988Z,12.20
2023-05-04T02:04:42.106Z,11.98
2023-05-04T02:07:09.317Z,11.85
2023-05-04T02:09:36.904Z,11.02
2023-05-04T02:12:04.557Z,11.60
2023-05-04T02:14:31.811Z,13.15
2023-05-04T02:16:58.868Z,14.48
2023-05-04T02:19:26.054Z,11.55
2023-05-04T02:21:53.260Z,10.48
2023-05-04T02:24:20.524Z,10.38
2023-05-04T02:26:47.685Z,11.52
2023-05-04T02:29:14.851Z,10.90
2023-05-04T02:31:42.115Z,9.63
2023-05-04T02:34:09.213Z,10.60
2023-05-04T02:36:36.414Z,12.05
2023-05-04T02:39:03.664Z,11.00
2023-05-04T02:41:30.925Z,11.93
2023-05-04T02:43:58.091Z,14.27
2023-05-04T02:46:26.948Z,15.45
2023-05-04T02:48:54.078Z,14.00
2023-05-04T02:51:21.274Z,13.00
2023-05-04T02:53:48.442Z,14.93
2023-05-04T02:56:16.234Z,12.82
2023-05-04T02:58:43.335Z,12.63
2023-05-04T03:01:10.575Z,12.68
2023-05-04T03:03:38.123Z,12.75
2023-05-04T03:06:05.420Z,13.88
2023-05-04T03:08:32.584Z,11.73
2023-05-04T03:10:59.738Z,12.15
2023-05-04T03:13:26.931Z,12.80
2023-05-04T03:15:54.006Z,11.52
2023-05-04T03:18:21.141Z,13.45
2023-05-04T03:20:48.302Z,12.00
2023-05-04T03:23:16.266Z,11.75
2023-05-04T03:25:43.456Z,10.38
2023-05-04T03:28:10.607Z,12.32
2023-05-04T03:30:38.407Z,11.70
2023-05-04T03:33:05.677Z,10.13
2023-05-04T03:35:32.893Z,12.27
2023-05-04T03:38:00.051Z,11.30
2023-05-04T03:40:27.247Z,11.15
2023-05-04T03:42:54.435Z,12.10
2023-05-04T03:45:22.663Z,14.05
2023-05-04T03:47:49.869Z,15.80
2023-05-04T03:50:17.127Z,13.93
2023-05-04T03:52:44.313Z,17.60
2023-05-04T03:55:11.679Z,15.75
2023-05-04T03:57:38.838Z,15.40
2023-05-04T04:00:06.831Z,19.05
2023-05-04T04:02:34.304Z,14.10
2023-05-04T04:05:01.402Z,15.55
2023-05-04T04:07:28.617Z,12.45
2023-05-04T04:09:55.896Z,12.85
2023-05-04T04:12:23.031Z,13.68
2023-05-04T04:14:52.125Z,13.60
2023-05-04T04:17:19.458Z,13.57
2023-05-04T04:19:46.610Z,12.55
2023-05-04T04:22:14.149Z,13.70
2023-05-04T04:24:41.542Z,13.10
2023-05-04T04:27:08.628Z,14.55
2023-05-04T04:29:36.531Z,12.02
2023-05-04T04:32:04.123Z,11.45
2023-05-04T04:34:31.434Z,13.57
2023-05-04T04:36:59.021Z,11.55
2023-05-04T04:39:26.220Z,10.73
2023-05-04T04:41:53.421Z,10.05
2023-05-04T04:44:20.907Z,13.75
2023-05-04T04:46:48.636Z,9.77
2023-05-04T04:49:18.023Z,9.85
2023-05-04T04:51:45.309Z,11.75
2023-05-04T04:54:12.519Z,10.18
2023-05-04T04:56:45.118Z,10.35
2023-05-04T04:59:13.281Z,9.80
2023-05-04T05:01:42.304Z,10.20
2023-05-04T05:04:09.607Z,14.65
2023-05-04T05:06:36.919Z,14.18
2023-05-04T05:09:04.663Z,10.75
2023-05-04T05:11:33.014Z,9.88
2023-05-04T05:14:00.116Z,8.98
2023-05-04T05:16:27.612Z,9.18
2023-05-04T05:18:54.738Z,11.68
2023-05-04T05:21:21.891Z,11.27
2023-05-04T05:23:49.014Z,9.48
2023-05-04T05:26:16.317Z,10.35
2023-05-04T05:28:43.477Z,12.75
2023-05-04T05:31:10.743Z,13.20
2023-05-04T05:33:37.884Z,14.20
2023-05-04T05:36:06.341Z,10.85
2023-05-04T05:38:33.601Z,10.57
2023-05-04T05:41:00.960Z,11.20
2023-05-04T05:43:28.250Z,14.75
2023-05-04T05:45:55.499Z,12.43
2023-05-04T05:48:22.806Z,11.43
2023-05-04T05:50:50.416Z,12.80
2023-05-04T05:53:17.586Z,9.88
2023-05-04T05:55:46.220Z,11.35
2023-05-04T05:58:13.969Z,11.48
2023-05-04T06:00:41.066Z,11.30
2023-05-04T06:03:08.434Z,10.10
2023-05-04T06:05:35.716Z,10.48
2023-05-04T06:08:02.898Z,10.63
2023-05-04T06:10:30.000Z,11.73
2023-05-04T06:12:57.285Z,9.30
2023-05-04T06:15:24.419Z,12.65
2023-05-04T06:17:51.816Z,56.80
2023-05-04T06:20:19.183Z,11.43
2023-05-04T06:22:46.439Z,12.63
2023-05-04T06:25:13.735Z,12.57
2023-05-04T06:27:40.864Z,15.18
2023-05-04T06:30:09.066Z,13.13
2023-05-04T06:32:36.555Z,10.95
2023-05-04T06:35:03.850Z,11.38
2023-05-04T06:37:31.233Z,10.82
2023-05-04T06:39:58.693Z,13.73
2023-05-04T06:42:29.331Z,10.05
2023-05-04T06:44:57.351Z,10.60
2023-05-04T06:47:24.506Z,13.15
2023-05-04T06:49:51.651Z,13.00
2023-05-04T06:52:18.745Z,13.23
2023-05-04T06:54:46.532Z,16.08
2023-05-04T06:57:13.647Z,12.98
2023-05-04T06:59:41.378Z,13.15
2023-05-04T07:02:08.619Z,12.05
2023-05-04T07:04:36.043Z,15.30
2023-05-04T07:07:03.819Z,12.63
2023-05-04T07:09:30.978Z,12.27
2023-05-04T07:11:58.156Z,10.57
2023-05-04T07:14:25.302Z,8.95
2023-05-04T07:16:52.400Z,11.20
2023-05-04T07:19:20.086Z,10.35
2023-05-04T07:21:47.751Z,13.55
2023-05-04T07:24:15.001Z,11.75
2023-05-04T07:26:42.771Z,14.15
2023-05-04T07:29:09.854Z,13.38
2023-05-04T07:31:38.529Z,15.05
2023-05-04T07:34:05.913Z,20.83
2023-05-04T07:36:35.748Z,19.27
2023-05-04T07:39:03.333Z,18.58
2023-05-04T07:41:30.612Z,16.52
2023-05-04T07:43:57.785Z,17.17
2023-05-04T07:46:25.048Z,14.93
2023-05-04T07:48:52.263Z,17.55
2023-05-04T07:51:20.099Z,13.73
2023-05-04T07:53:47.134Z,16.67
2023-05-04T07:56:14.470Z,18.15
2023-05-04T07:58:42.239Z,17.48
2023-05-04T08:01:09.351Z,15.75
2023-05-04T08:03:37.767Z,18.45
2023-05-04T08:06:04.985Z,18.88
2023-05-04T08:08:32.211Z,14.55
2023-05-04T08:11:08.434Z,17.40
2023-05-04T08:13:46.403Z,23.70
2023-05-04T08:16:13.544Z,18.92
2023-05-04T08:18:40.728Z,25.05
2023-05-04T08:21:09.357Z,16.38
2023-05-04T08:23:36.755Z,20.75
2023-05-04T08:26:05.023Z,16.52
2023-05-04T08:28:39.883Z,17.95
2023-05-04T08:31:08.110Z,18.77
2023-05-04T08:33:35.457Z,17.50
2023-05-04T08:36:03.513Z,21.58
2023-05-04T08:38:30.820Z,15.23
2023-05-04T08:40:58.284Z,17.42
2023-05-04T08:43:25.751Z,14.80
2023-05-04T08:45:53.329Z,13.90
2023-05-04T08:48:20.497Z,15.88
2023-05-04T08:50:48.501Z,13.55
2023-05-04T08:53:19.115Z,20.15
2023-05-04T08:55:50.033Z,14.30
2023-05-04T08:58:19.098Z,11.48
2023-05-04T09:00:46.647Z,10.98
2023-05-04T09:03:15.141Z,14.82
2023-05-04T09:05:43.500Z,13.15
2023-05-04T09:08:10.671Z,13.85
2023-05-04T09:10:37.927Z,13.57
2023-05-04T09:13:05.064Z,12.90
2023-05-04T09:15:32.774Z,10.70
2023-05-04T09:18:06.636Z,12.02
2023-05-04T09:20:46.922Z,12.18
2023-05-04T09:23:17.706Z,10.75
2023-05-04T09:25:52.191Z,11.85
2023-05-04T09:28:20.815Z,14.15
2023-05-04T09:30:49.216Z,12.48
2023-05-04T09:33:17.282Z,12.88
2023-05-04T09:35:45.668Z,9.65
2023-05-04T09:38:24.680Z,10.65
2023-05-04T09:40:52.327Z,9.82
2023-05-04T09:43:19.558Z,15.02
2023-05-04T09:45:48.056Z,12.93
2023-05-04T09:48:32.034Z,11.48
2023-05-04T09:51:06.572Z,11.90
2023-05-04T09:53:36.962Z,8.75
2023-05-04T09:56:15.063Z,11.13
2023-05-04T09:58:43.839Z,7.60
2023-05-04T10:01:11.766Z,9.02
2023-05-04T10:03:39.800Z,8.43
2023-05-04T10:06:09.334Z,8.43
2023-05-04T10:08:37.227Z,7.22
2023-05-04T10:11:04.933Z,8.70
2023-05-04T10:13:32.117Z,7.10
2023-05-04T10:16:32.166Z,7.18
2023-05-04T10:19:24.350Z,8.07
2023-05-04T10:22:08.352Z,8.35
2023-05-04T10:25:14.742Z,9.50
2023-05-04T10:27:55.732Z,7.32
2023-05-04T10:30:24.196Z,6.38
2023-05-04T10:32:59.047Z,8.52
2023-05-04T10:35:27.761Z,6.32
2023-05-04T10:37:56.251Z,7.65
2023-05-04T10:40:39.906Z,10.85
2023-05-04T10:43:08.401Z,9.43
2023-05-04T10:45:39.816Z,8.38
2023-05-04T10:48:08.579Z,7.93
2023-05-04T10:50:54.360Z,7.57
2023-05-04T10:53:33.325Z,8.73
2023-05-04T10:56:00.475Z,12.93
2023-05-04T10:58:30.680Z,10.35
2023-05-04T11:01:02.746Z,8.77
2023-05-04T11:03:41.149Z,10.23
2023-05-04T11:06:24.773Z,8.13
2023-05-04T11:09:03.055Z,8.85
2023-05-04T11:11:30.111Z,6.78
2023-05-04T11:13:57.877Z,10.27
2023-05-04T11:16:26.495Z,11.73
2023-05-04T11:19:08.176Z,10.27
2023-05-04T11:21:35.317Z,7.93
2023-05-04T11:24:02.968Z,9.70
2023-05-04T11:26:30.260Z,7.70
2023-05-04T11:28:57.659Z,14.43
2023-05-04T11:31:24.865Z,8.60
2023-05-04T11:33:54.930Z,9.18
2023-05-04T11:36:23.458Z,9.27
2023-05-04T11:38:51.073Z,8.73
2023-05-04T11:41:18.228Z,12.60
2023-05-04T11:43:46.706Z,8.85
2023-05-04T11:46:16.486Z,14.20
2023-05-04T11:48:44.281Z,9.52
2023-05-04T11:51:11.540Z,10.57
2023-05-04T11:53:40.085Z,13.57
2023-05-04T11:56:10.890Z,13.73
2023-05-04T11:58:38.417Z,10.90
2023-05-04T12:01:06.081Z,13.20
2023-05-04T12:06:05.173Z,11.83
2023-05-04T12:08:42.325Z,11.07
2023-05-04T12:11:16.669Z,9.90
2023-05-04T12:13:48.137Z,11.88
2023-05-04T12:16:19.606Z,10.88
2023-05-04T12:18:47.957Z,15.02
2023-05-04T12:21:16.218Z,8.35
2023-05-04T12:23:43.827Z,10.15
2023-05-04T12:26:12.512Z,8.25
2023-05-04T12:28:41.478Z,13.23
2023-05-04T12:31:09.488Z,9.60
2023-05-04T12:33:36.902Z,7.80
2023-05-04T12:36:06.251Z,9.52
2023-05-04T12:38:34.068Z,8.45
2023-05-04T12:41:04.455Z,9.88
2023-05-04T12:43:33.218Z,9.10
2023-05-04T12:46:00.780Z,8.05
2023-05-04T12:48:32.974Z,9.85
2023-05-04T12:51:01.639Z,9.50
2023-05-04T12:53:30.279Z,8.32
2023-05-04T12:55:57.645Z,10.65
2023-05-04T12:58:24.986Z,10.38
2023-05-04T13:00:52.156Z,7.63
2023-05-04T13:03:20.035Z,11.02
2023-05-04T13:05:48.709Z,8.15
2023-05-04T13:08:17.112Z,9.38
2023-05-04T13:10:46.375Z,11.23
2023-05-04T13:13:16.288Z,9.20
2023-05-04T13:15:44.385Z,9.73
2023-05-04T13:18:12.741Z,10.88
2023-05-04T13:20:40.861Z,7.43
2023-05-04T13:23:08.174Z,11.05
2023-05-04T13:25:35.320Z,8.15
2023-05-04T13:28:02.507Z,8.43
2023-05-04T13:30:29.830Z,9.65
2023-05-04T13:32:57.016Z,8.75
2023-05-04T13:35:24.192Z,6.35
2023-05-04T13:37:51.666Z,10.15
2023-05-04T13:40:18.906Z,8.85
2023-05-04T13:42:47.777Z,7.78
2023-05-04T13:45:15.197Z,6.93
2023-05-04T13:47:42.496Z,7.35
2023-05-04T13:50:10.083Z,6.13
2023-05-04T13:52:37.645Z,8.90
2023-05-04T13:55:05.423Z,5.82
2023-05-04T13:57:32.832Z,6.65
2023-05-04T14:00:06.503Z,8.07
2023-05-04T14:02:35.330Z,7.55
2023-05-04T14:05:04.389Z,10.70
2023-05-04T14:07:31.736Z,6.60
2023-05-04T14:09:59.570Z,8.32
2023-05-04T14:12:27.674Z,7.85
2023-05-04T14:14:54.839Z,7.85
2023-05-04T14:17:22.770Z,6.95
2023-05-04T14:19:49.960Z,10.82
2023-05-04T14:22:17.158Z,8.00
2023-05-04T14:24:44.469Z,7.70
2023-05-04T14:27:11.933Z,7.38
2023-05-04T14:29:39.164Z,8.57
2023-05-04T14:32:06.652Z,6.43
2023-05-04T14:34:33.930Z,7.50
2023-05-04T14:37:01.711Z,7.13
2023-05-04T14:39:28.868Z,7.95
2023-05-04T14:41:57.320Z,7.25
2023-05-04T14:44:26.257Z,5.32
2023-05-04T14:46:53.428Z,5.57
2023-05-04T14:49:35.487Z,4.47
2023-05-04T14:52:04.041Z,7.40
2023-05-04T14:54:31.252Z,6.05
2023-05-04T14:56:59.235Z,5.20
2023-05-04T14:59:26.855Z,6.03
2023-05-04T15:01:55.451Z,5.60
2023-05-04T15:04:23.078Z,6.70
2023-05-04T15:06:50.595Z,6.53
2023-05-04T15:09:19.181Z,4.65
2023-05-04T15:11:46.428Z,7.45
2023-05-04T15:14:13.831Z,6.75
2023-05-04T15:16:41.100Z,4.97
2023-05-04T15:19:08.505Z,9.13
2023-05-04T15:21:35.724Z,6.22
2023-05-04T15:24:03.812Z,4.70
2023-05-04T15:26:31.364Z,6.30
2023-05-04T15:28:58.974Z,6.28
2023-05-04T15:31:26.362Z,8.23
2023-05-04T15:33:54.238Z,6.00
2023-05-04T15:36:21.817Z,7.72
2023-05-04T15:38:49.035Z,6.57
2023-05-04T15:41:16.520Z,6.40
2023-05-04T15:43:43.875Z,5.75
2023-05-04T15:46:11.099Z,5.57
2023-05-04T15:48:38.405Z,6.35
2023-05-04T15:51:12.335Z,7.78
2023-05-04T15:53:39.746Z,12.18
2023-05-04T15:56:07.895Z,7.93
2023-05-04T15:58:35.186Z,8.95
2023-05-04T16:01:04.280Z,7.05
2023-05-04T16:03:32.366Z,10.55
2023-05-04T16:05:59.743Z,5.68
2023-05-04T16:08:26.961Z,6.80
2023-05-04T16:10:54.427Z,7.18
2023-05-04T16:13:21.850Z,6.40
2023-05-04T16:15:52.341Z,7.72
2023-05-04T16:18:19.706Z,7.40
2023-05-04T16:20:49.896Z,7.30
2023-05-04T16:23:18.008Z,9.27
2023-05-04T16:25:45.114Z,4.90
2023-05-04T16:28:12.445Z,7.30
2023-05-04T16:30:39.749Z,5.90
2023-05-04T16:33:07.225Z,5.72
2023-05-04T16:35:35.349Z,8.70
2023-05-04T16:38:02.596Z,6.90
2023-05-04T16:40:32.293Z,6.63
2023-05-04T16:42:59.829Z,9.10
2023-05-04T16:45:32.024Z,10.75
2023-05-04T16:47:59.390Z,8.15
2023-05-04T16:50:26.764Z,6.70
2023-05-04T16:52:54.146Z,7.25
2023-05-04T16:55:21.803Z,6.50
2023-05-04T16:57:49.486Z,8.20
2023-05-04T17:00:18.804Z,6.63
2023-05-04T17:02:46.346Z,8.52
2023-05-04T17:05:13.562Z,24.05
2023-05-04T17:07:43.501Z,13.98
2023-05-04T17:10:11.098Z,8.55
2023-05-04T17:12:38.398Z,10.73
2023-05-04T17:15:06.138Z,8.77
2023-05-04T17:17:33.367Z,12.20
2023-05-04T17:20:01.031Z,10.82
2023-05-04T17:22:28.337Z,10.55
2023-05-04T17:24:55.566Z,13.52
2023-05-04T17:27:22.814Z,15.75
2023-05-04T17:29:50.295Z,18.90
2023-05-04T17:32:17.534Z,18.08
2023-05-04T17:34:44.640Z,17.67
2023-05-04T17:37:11.990Z,17.15
2023-05-04T17:39:39.181Z,15.70
2023-05-04T17:42:07.312Z,15.43
2023-05-04T17:44:34.511Z,16.45
2023-05-04T17:47:01.708Z,16.35
2023-05-04T17:49:29.048Z,12.65
2023-05-04T17:51:56.686Z,11.50
2023-05-04T17:54:23.828Z,15.20
2023-05-04T17:56:51.101Z,14.95
2023-05-04T17:59:18.256Z,18.42
2023-05-04T18:01:46.078Z,14.68
2023-05-04T18:04:13.297Z,16.55
2023-05-04T18:06:40.434Z,18.33
2023-05-04T18:09:07.620Z,19.95
2023-05-04T18:11:34.833Z,19.70
2023-05-04T18:14:02.091Z,18.20
2023-05-04T18:16:29.429Z,22.27
2023-05-04T18:18:58.326Z,20.95
2023-05-04T18:21:26.283Z,28.15
2023-05-04T18:23:53.431Z,22.92
2023-05-04T18:26:22.865Z,31.88
2023-05-04T18:28:50.550Z,32.08
2023-05-04T18:31:17.793Z,30.35
2023-05-04T18:33:45.398Z,26.90
2023-05-04T18:36:12.742Z,25.42
2023-05-04T18:38:40.143Z,26.65
2023-05-04T18:41:07.379Z,24.83
2023-05-04T18:43:34.598Z,20.58
2023-05-04T18:46:08.110Z,24.77
2023-05-04T18:48:35.646Z,26.75
2023-05-04T18:51:02.997Z,26.38
2023-05-04T18:53:30.121Z,23.40
2023-05-04T18:56:08.305Z,22.90
2023-05-04T18:58:39.191Z,25.95
2023-05-04T19:01:06.744Z,24.27
2023-05-04T19:03:34.041Z,22.77
2023-05-04T19:06:01.448Z,19.75
2023-05-04T19:08:28.556Z,18.95
2023-05-04T19:11:01.265Z,21.25
2023-05-04T19:13:28.487Z,20.25
2023-05-04T19:15:55.755Z,18.85
2023-05-04T19:18:23.648Z,19.30
2023-05-04T19:20:51.107Z,17.15
2023-05-04T19:23:18.283Z,15.88
2023-05-04T19:25:45.626Z,18.52
2023-05-04T19:28:13.444Z,20.98
2023-05-04T19:30:41.827Z,25.80
2023-05-04T19:33:09.102Z,20.83
2023-05-04T19:35:36.695Z,23.25
2023-05-04T19:38:06.686Z,22.63
2023-05-04T19:40:34.706Z,20.10
2023-05-04T19:43:02.080Z,22.23
2023-05-04T19:45:29.264Z,23.17
2023-05-04T19:47:56.670Z,30.48
2023-05-04T19:50:24.198Z,18.77
2023-05-04T19:52:51.947Z,33.47
2023-05-04T19:55:19.326Z,21.10
2023-05-04T19:57:48.026Z,41.40
2023-05-04T20:00:18.265Z,27.55
2023-05-04T20:02:47.163Z,32.25
2023-05-04T20:05:14.674Z,28.20
2023-05-04T20:07:42.338Z,20.05
2023-05-04T20:10:10.090Z,21.40
2023-05-04T20:12:37.952Z,17.42
2023-05-04T20:15:06.663Z,20.73
2023-05-04T20:17:34.329Z,21.38
2023-05-04T20:20:04.603Z,21.67
2023-05-04T20:22:33.210Z,18.45
2023-05-04T20:25:00.792Z,23.33
2023-05-04T20:27:28.376Z,18.17
2023-05-04T20:29:55.645Z,21.30
2023-05-04T20:32:23.187Z,30.95
2023-05-04T20:34:50.401Z,22.98
2023-05-04T20:37:17.724Z,33.20
2023-05-04T20:39:44.825Z,24.88
2023-05-04T20:42:12.692Z,22.58
2023-05-04T20:44:39.952Z,20.83
2023-05-04T20:47:07.083Z,23.67
2023-05-04T20:49:34.267Z,26.67
2023-05-04T20:52:01.506Z,20.77
2023-05-04T20:54:29.079Z,23.27
2023-05-04T20:56:56.575Z,22.73
2023-05-04T20:59:26.081Z,23.88
2023-05-04T21:02:05.751Z,19.38
2023-05-04T21:04:42.480Z,21.80
2023-05-04T21:07:13.224Z,20.02
2023-05-04T21:09:45.765Z,18.15
2023-05-04T21:12:16.496Z,23.00
2023-05-04T21:14:43.774Z,21.90
2023-05-04T21:17:19.861Z,29.30
2023-05-04T21:19:47.785Z,24.83
2023-05-04T21:22:19.552Z,25.33
2023-05-04T21:24:47.298Z,22.65
2023-05-04T21:27:19.600Z,20.15
2023-05-04T21:29:48.076Z,19.55
2023-05-04T21:32:27.490Z,23.85
2023-05-04T21:35:02.065Z,21.52
2023-05-04T21:37:34.207Z,18.27
2023-05-04T21:40:02.582Z,16.88
2023-05-04T21:42:30.410Z,24.10
2023-05-04T21:44:58.524Z,21.08
2023-05-04T21:47:27.017Z,23.63
2023-05-04T21:49:54.572Z,26.30
2023-05-04T21:52:22.280Z,26.33
2023-05-04T21:54:49.559Z,23.30
2023-05-04T21:57:16.986Z,26.10
2023-05-04T21:59:44.140Z,21.10
2023-05-04T22:02:11.348Z,20.90
2023-05-04T22:04:43.513Z,20.20
2023-05-04T22:07:11.246Z,20.67
2023-05-04T22:09:39.336Z,19.67
2023-05-04T22:12:07.737Z,18.33
2023-05-04T22:14:35.145Z,19.73
2023-05-04T22:17:02.301Z,21.67
2023-05-04T22:19:29.455Z,19.70
2023-05-04T22:21:56.758Z,21.42
2023-05-04T22:24:23.929Z,21.17
2023-05-04T22:26:51.151Z,21.48
2023-05-04T22:29:18.480Z,20.77
2023-05-04T22:31:45.627Z,22.20
2023-05-04T22:34:14.260Z,19.23
2023-05-04T22:36:42.956Z,19.38
2023-05-04T22:39:10.383Z,18.13
2023-05-04T22:41:37.480Z,16.70
2023-05-04T22:44:04.759Z,18.60
2023-05-04T22:46:32.152Z,23.85
2023-05-04T22:48:59.432Z,23.25
2023-05-04T22:51:26.590Z,19.50
2023-05-04T22:53:54.370Z,20.25
2023-05-04T22:56:22.549Z,21.55
2023-05-04T22:58:50.211Z,18.42
2023-05-04T23:01:18.240Z,21.80
2023-05-04T23:03:45.851Z,20.65
2023-05-04T23:06:13.085Z,21.13
2023-05-04T23:08:40.222Z,19.33
2023-05-04T23:11:07.504Z,21.60
2023-05-04T23:13:34.693Z,19.15
2023-05-04T23:16:02.857Z,19.95
2023-05-04T23:18:30.405Z,23.88
2023-05-04T23:20:58.542Z,23.60
2023-05-04T23:23:31.830Z,21.35
2023-05-04T23:25:59.142Z,21.58
2023-05-04T23:28:26.318Z,23.17
2023-05-04T23:30:55.736Z,25.95
2023-05-04T23:33:22.993Z,21.92
2023-05-04T23:35:53.803Z,19.73
2023-05-04T23:38:20.883Z,20.73
2023-05-04T23:40:48.084Z,21.45
2023-05-04T23:43:15.363Z,20.15
2023-05-04T23:45:42.558Z,21.65
2023-05-04T23:48:09.857Z,20.52
2023-05-04T23:50:37.187Z,21.88
2023-05-04T23:53:04.382Z,20.80
2023-05-04T23:55:31.561Z,22.00
2023-05-04T23:57:58.730Z,19.80
